Time;durP1;ratioP1;P1;durP2;ratioP2;P2;SDS_P1;SDS_P2;PMS_P1;PMS_P2;Temp;Humidity;BMP_temperature;BMP_pressure;BME280_temperature;BME280_humidity;BME280_pressure;Samples;Min_cycle;Max_cycle;Signal;HPM_P1;HPM_P2
2024/02/09 00:08:57;;;;;;;5.60;2.40;;;;;;;1.55;78.51;97590.82;103282;1283;600183;-25
2024/02/09 00:11:28;;;;;;;3.30;1.70;;;;;;;1.38;79.45;97589.60;104802;1272;61163;-28
2024/02/09 00:13:56;;;;;;;5.10;2.40;;;;;;;2.10;78.43;97587.07;104879;1267;61079;-28
2024/02/09 00:24:02;;;;;;;3.30;1.90;;;;;;;2.19;76.36;97569.33;103273;1283;600178;-26
2024/02/09 00:26:30;;;;;;;3.70;2.00;;;;;;;1.94;76.77;97565.77;105692;1259;61142;-27
2024/02/09 00:29:01;;;;;;;3.70;2.40;;;;;;;1.63;77.66;97560.17;105673;1260;61212;-28
2024/02/09 00:31:29;;;;;;;1.10;1.00;;;;;;;1.46;78.42;97557.77;105674;1254;71018;-28
2024/02/09 00:33:57;;;;;;;3.00;2.00;;;;;;;1.92;78.24;97554.74;105645;1254;74293;-28
2024/02/09 00:36:25;;;;;;;3.70;1.90;;;;;;;2.55;76.22;97545.54;105594;1259;72684;-28
2024/02/09 00:38:53;;;;;;;3.90;1.80;;;;;;;2.62;75.35;97541.69;105538;1251;168594;-28
2024/02/09 00:41:21;;;;;;;2.60;1.70;;;;;;;2.49;75.39;97534.02;105773;1251;61129;-28
2024/02/09 00:43:49;;;;;;;4.30;1.80;;;;;;;2.17;75.68;97527.04;105914;1251;72239;-28
2024/02/09 00:46:17;;;;;;;2.30;1.60;;;;;;;1.86;76.62;97522.33;105775;1251;74265;-28
2024/02/09 00:48:45;;;;;;;3.80;1.80;;;;;;;1.63;77.47;97521.05;105830;1254;72673;-28
2024/02/09 00:58:51;;;;;;;3.30;1.90;;;;;;;2.43;75.86;97496.04;102704;1290;599851;-25
2024/02/09 01:01:19;;;;;;;3.20;2.30;;;;;;;2.21;75.93;97489.41;104835;1267;61171;-29
2024/02/09 01:03:47;;;;;;;5.80;2.30;;;;;;;1.97;76.62;97484.45;104924;1266;61133;-28
2024/02/09 02:46:23;;;;;;;2.00;0.90;;;;;;;2.11;75.57;97373.52;105067;1269;61072;-28
2024/02/09 03:04:48;;;;;;;1.30;0.90;;;;;;;2.62;74.74;97377.63;102660;1292;600082;-26
2024/02/09 03:07:16;;;;;;;1.70;1.10;;;;;;;2.35;74.99;97370.56;104829;1267;61151;-28
2024/02/09 03:10:04;;;;;;;1.30;1.10;;;;;;;2.08;75.63;97374.98;104866;1267;61170;-28
2024/02/09 03:20:14;;;;;;;1.90;1.00;;;;;;;1.56;78.97;97370.77;102689;1292;599428;-26
2024/02/09 03:22:41;;;;;;;1.70;1.20;;;;;;;2.39;76.85;97372.37;104840;1267;61068;-26
2024/02/09 03:25:09;;;;;;;1.10;0.90;;;;;;;2.64;75.24;97370.81;104864;1266;61114;-27
2024/02/09 03:27:40;;;;;;;1.70;1.00;;;;;;;2.58;74.76;97371.83;104882;1263;72256;-27
2024/02/09 03:30:08;;;;;;;1.30;1.00;;;;;;;2.31;74.94;97368.30;104810;1266;74334;-28
2024/02/09 03:32:38;;;;;;;2.20;1.30;;;;;;;2.02;75.84;97363.91;104686;1266;72638;-29
2024/02/09 03:35:07;;;;;;;1.90;1.20;;;;;;;1.74;76.57;97358.23;104673;1269;61187;-29
2024/02/09 03:37:35;;;;;;;1.80;1.40;;;;;;;1.49;77.37;97357.12;105021;1263;61164;-29
2024/02/09 03:40:03;;;;;;;1.60;1.00;;;;;;;1.25;78.63;97353.95;105170;1263;71333;-29
2024/02/09 03:42:31;;;;;;;1.80;0.90;;;;;;;1.90;78.02;97358.59;104936;1270;74437;-29
2024/02/09 03:44:59;;;;;;;1.90;1.20;;;;;;;2.38;76.04;97357.32;105174;1263;72709;-29
2024/02/09 03:47:27;;;;;;;1.90;1.50;;;;;;;2.31;75.42;97351.33;104870;1266;61235;-29
2024/02/09 03:49:56;;;;;;;1.20;1.10;;;;;;;2.11;75.85;97348.73;104954;1263;61151;-29
2024/02/09 03:52:24;;;;;;;1.70;1.10;;;;;;;1.83;76.47;97346.30;105015;1268;72459;-29
2024/02/09 03:54:52;;;;;;;1.00;0.80;;;;;;;1.55;77.35;97342.64;104909;1263;74321;-29
2024/02/09 03:57:21;;;;;;;0.50;0.50;;;;;;;1.26;79.08;97343.33;104883;1263;70381;-29
2024/02/09 03:59:50;;;;;;;1.60;0.80;;;;;;;1.84;78.42;97343.32;104935;1263;61112;-29
2024/02/09 04:02:18;;;;;;;1.10;0.90;;;;;;;2.39;76.07;97340.13;104925;1266;61362;-29
2024/02/09 04:04:49;;;;;;;1.40;1.10;;;;;;;2.36;75.41;97341.00;104896;1265;71687;-29
2024/02/09 04:07:21;;;;;;;1.90;1.00;;;;;;;2.19;75.64;97338.66;104824;1267;72510;-29
2024/02/09 04:09:49;;;;;;;1.30;1.00;;;;;;;1.98;76.21;97338.38;104959;1268;72619;-29
2024/02/09 04:12:36;;;;;;;1.50;0.90;;;;;;;1.71;77.10;97335.17;104925;1263;61081;-29
2024/02/09 04:22:45;;;;;;;1.90;1.20;;;;;;;2.35;76.37;97322.09;102693;1293;599355;-26
2024/02/09 04:32:55;;;;;;;1.40;1.10;;;;;;;1.85;76.51;97336.89;102735;1291;599062;-26
2024/02/09 04:35:24;;;;;;;1.70;1.20;;;;;;;1.57;77.41;97337.58;104841;1267;61107;-26
2024/02/09 04:45:28;;;;;;;3.60;2.30;;;;;;;2.50;76.06;97337.60;102728;1294;600231;-26
2024/02/09 04:47:56;;;;;;;2.60;1.90;;;;;;;2.60;74.67;97334.63;105103;1269;61122;-27
2024/02/09 04:58:03;;;;;;;3.00;1.50;;;;;;;1.77;76.39;97335.05;102765;1294;600189;-27
2024/02/09 05:00:32;;;;;;;2.90;1.40;;;;;;;1.49;77.50;97328.73;104841;1270;61097;-27
2024/02/09 05:09:23;;;;;;;2.90;1.30;;;;;;;2.56;74.53;97332.36;103020;1291;599546;-30
2024/02/09 05:11:52;;;;;;;2.80;1.50;;;;;;;2.43;74.22;97331.46;104842;1266;61031;-30
2024/02/09 05:21:57;;;;;;;5.40;2.40;;;;;;;1.42;77.95;97334.84;102756;1293;600359;-27
2024/02/09 05:24:27;;;;;;;2.30;1.50;;;;;;;1.32;78.67;97347.02;105100;1266;61171;-29
2024/02/09 05:26:55;;;;;;;2.20;1.50;;;;;;;1.69;78.86;97349.52;104951;1267;61132;-29
2024/02/09 05:29:23;;;;;;;8.30;4.70;;;;;;;2.33;75.67;97340.57;104840;1269;72149;-29
2024/02/09 05:39:42;;;;;;;16.10;5.30;;;;;;;1.65;77.61;97354.61;102717;1294;599180;-29
2024/02/09 05:42:10;;;;;;;7.70;4.20;;;;;;;1.43;78.27;97355.14;104847;1273;61231;-27
2024/02/09 05:51:14;;;;;;;17.20;9.20;;;;;;;2.05;76.47;97370.73;103363;1287;600552;-26
2024/02/09 06:01:31;;;;;;;8.20;5.30;;;;;;;1.69;76.90;97367.34;102662;1298;599417;-28
2024/02/09 06:03:59;;;;;;;5.60;3.60;;;;;;;1.52;77.21;97362.87;104671;1266;61091;-28
2024/02/09 06:06:27;;;;;;;5.20;2.90;;;;;;;1.36;77.82;97364.31;104814;1266;61094;-28
2024/02/09 06:08:56;;;;;;;1.50;1.00;;;;;;;1.23;78.50;97365.10;104627;1273;72282;-28
2024/02/09 06:11:24;;;;;;;2.70;1.70;;;;;;;1.82;77.81;97373.21;104867;1266;74270;-29
2024/02/09 06:13:52;;;;;;;4.30;2.30;;;;;;;2.48;74.77;97374.59;104680;1267;179310;-30
2024/02/09 06:16:22;;;;;;;4.00;2.60;;;;;;;2.39;74.12;97383.26;104817;1271;61206;-30
2024/02/09 06:18:50;;;;;;;8.40;3.70;;;;;;;2.19;74.78;97393.48;104881;1265;61110;-28
2024/02/09 06:21:18;;;;;;;9.90;5.10;;;;;;;2.13;74.96;97390.86;104853;1264;72237;-28
2024/02/09 06:23:47;;;;;;;24.80;12.10;;;;;;;1.29;77.61;97393.98;104876;1270;74313;-27
2024/02/09 06:26:17;;;;;;;9.30;5.30;;;;;;;1.07;79.15;97403.23;105096;1268;71726;-29
2024/02/09 06:36:22;;;;;;;7.50;3.80;;;;;;;2.41;74.29;97406.77;103019;1290;600206;-29
2024/02/09 06:38:50;;;;;;;29.20;12.00;;;;;;;2.35;73.97;97412.02;105036;1267;62526;-27
2024/02/09 06:41:19;;;;;;;68.70;31.10;;;;;;;2.07;74.70;97409.92;105095;1264;61110;-27
2024/02/09 06:51:23;;;;;;;3.50;2.10;;;;;;;1.69;76.82;97406.13;102656;1292;600181;-29
2024/02/09 06:53:55;;;;;;;3.10;1.80;;;;;;;2.39;75.56;97408.64;104852;1272;61280;-29
2024/02/09 07:02:56;;;;;;;3.50;1.70;;;;;;;2.90;71.89;97411.41;102668;1290;600231;-28
2024/02/09 07:13:01;;;;;;;4.60;3.10;;;;;;;2.25;73.99;97421.13;102745;1292;599465;-27
2024/02/09 07:15:30;;;;;;;4.50;1.90;;;;;;;2.14;74.73;97415.45;104812;1270;61234;-27
2024/02/09 07:18:00;;;;;;;3.50;2.00;;;;;;;2.71;73.78;97420.02;105126;1264;61117;-27
2024/02/09 07:20:28;;;;;;;2.20;1.60;;;;;;;3.24;71.25;97418.08;104886;1269;72224;-27
2024/02/09 07:22:56;;;;;;;2.70;1.70;;;;;;;3.37;70.16;97423.42;104819;1273;74293;-27
2024/02/09 07:31:56;;;;;;;2.70;1.60;;;;;;;2.80;71.80;97424.98;102722;1295;599472;-27
2024/02/09 07:34:24;;;;;;;2.20;1.20;;;;;;;2.55;72.36;97423.77;104852;1267;61134;-26
2024/02/09 07:36:54;;;;;;;2.20;1.20;;;;;;;2.36;73.04;97421.73;104813;1271;61118;-26
2024/02/09 07:39:22;;;;;;;2.60;1.40;;;;;;;2.95;72.89;97428.45;104843;1267;71971;-26
2024/02/09 07:41:51;;;;;;;2.30;1.70;;;;;;;3.60;70.33;97430.36;104804;1270;73473;-26
2024/02/09 07:44:19;;;;;;;3.70;2.80;;;;;;;3.79;69.73;97426.14;104855;1267;72466;-26
2024/02/09 07:46:47;;;;;;;3.30;2.10;;;;;;;3.70;69.62;97434.06;104872;1266;61190;-26
2024/02/09 07:49:15;;;;;;;2.90;1.80;;;;;;;3.48;69.76;97441.10;104908;1263;61132;-26
2024/02/09 07:51:43;;;;;;;2.20;1.40;;;;;;;3.30;70.17;97442.63;105154;1269;75303;-26
2024/02/09 07:54:11;;;;;;;1.70;1.40;;;;;;;3.10;70.71;97443.83;104868;1263;74277;-27
2024/02/09 07:56:39;;;;;;;5.30;2.40;;;;;;;2.74;71.32;97437.22;105117;1269;72694;-26
2024/02/09 07:59:07;;;;;;;1.50;1.10;;;;;;;2.45;72.92;97446.55;104971;1263;61059;-25
2024/02/09 08:01:35;;;;;;;1.10;1.00;;;;;;;3.05;72.44;97449.02;104819;1270;61168;-26
2024/02/09 08:04:03;;;;;;;2.80;0.90;;;;;;;3.79;69.68;97449.32;104841;1270;73154;-25
2024/02/09 08:06:33;;;;;;;1.50;1.00;;;;;;;3.93;68.38;97450.43;104942;1267;77198;-28
2024/02/09 08:09:01;;;;;;;1.60;1.40;;;;;;;3.81;68.36;97456.36;104920;1270;75525;-28
2024/02/09 08:11:29;;;;;;;3.00;1.60;;;;;;;3.65;68.81;97454.71;104853;1270;61294;-29
2024/02/09 08:14:00;;;;;;;1.90;1.10;;;;;;;3.39;69.64;97458.24;104874;1266;61161;-29
2024/02/09 08:16:29;;;;;;;1.90;1.30;;;;;;;3.24;70.27;97460.44;104853;1270;72062;-30
2024/02/09 08:18:57;;;;;;;3.30;2.00;;;;;;;3.12;70.69;97456.36;104908;1270;77151;-29
2024/02/09 08:21:25;;;;;;;2.90;1.60;;;;;;;3.01;71.45;97456.52;105168;1264;72700;-29
2024/02/09 08:23:52;;;;;;;3.60;2.50;;;;;;;3.73;70.23;97454.57;105348;1256;61862;-30
2024/02/09 08:26:22;;;;;;;4.00;2.10;;;;;;;4.17;68.40;97456.77;105327;1257;61037;-30
2024/02/09 08:28:51;;;;;;;2.90;1.80;;;;;;;4.19;67.84;97455.42;105491;1262;75830;-30
2024/02/09 08:31:19;;;;;;;2.80;1.60;;;;;;;3.94;68.12;97458.94;105275;1257;74415;-30
2024/02/09 08:33:49;;;;;;;2.40;2.10;;;;;;;3.73;68.73;97470.70;105221;1257;71436;-30
2024/02/09 08:36:21;;;;;;;2.80;1.60;;;;;;;3.64;69.10;97476.21;105279;1257;61061;-30
2024/02/09 08:38:50;;;;;;;2.50;1.60;;;;;;;3.44;69.73;97481.34;105121;1258;62803;-31
2024/02/09 08:41:18;;;;;;;5.90;2.60;;;;;;;3.26;70.69;97486.83;105275;1257;75775;-30
2024/02/09 08:43:47;;;;;;;2.20;1.50;;;;;;;3.85;70.00;97482.35;105200;1263;73233;-31
2024/02/09 08:46:15;;;;;;;2.90;2.30;;;;;;;4.13;68.47;97484.38;105209;1258;75470;-30
2024/02/09 08:48:43;;;;;;;2.90;1.80;;;;;;;4.33;67.90;97491.07;105292;1256;62805;-28
2024/02/09 08:51:12;;;;;;;2.80;1.60;;;;;;;4.17;67.87;97487.00;105197;1263;62343;-27
2024/02/09 08:53:40;;;;;;;3.00;2.10;;;;;;;3.90;68.41;97484.52;105499;1263;75564;-26
2024/02/09 08:56:11;;;;;;;8.20;4.60;;;;;;;3.56;69.14;97483.02;105560;1257;77621;-26
2024/02/09 08:58:40;;;;;;;5.80;3.10;;;;;;;3.29;70.30;97482.02;105487;1257;74398;-25
2024/02/09 09:01:09;;;;;;;5.10;2.80;;;;;;;3.05;71.03;97484.64;105525;1258;61262;-25
2024/02/09 09:03:37;;;;;;;5.70;2.20;;;;;;;3.11;71.63;97482.81;105428;1257;61109;-26
2024/02/09 09:06:07;;;;;;;5.10;2.90;;;;;;;3.69;70.27;97482.69;105389;1263;75829;-26
2024/02/09 09:08:35;;;;;;;3.30;2.00;;;;;;;3.93;68.87;97482.23;105048;1257;77002;-25
2024/02/09 09:11:05;;;;;;;8.20;4.90;;;;;;;3.87;68.64;97481.79;105066;1257;75213;-26
2024/02/09 09:13:33;;;;;;;6.60;3.50;;;;;;;3.65;69.49;97494.36;105380;1258;61996;-25
2024/02/09 09:16:01;;;;;;;3.10;2.30;;;;;;;3.15;71.08;97498.65;105572;1262;62312;-26
2024/02/09 09:18:30;;;;;;;4.80;2.60;;;;;;;2.59;73.46;97499.37;105507;1262;75841;-26
2024/02/09 09:20:58;;;;;;;4.60;2.20;;;;;;;2.84;72.59;97492.70;105579;1257;77129;-26
2024/02/09 09:23:26;;;;;;;1.60;1.20;;;;;;;2.79;73.71;97482.41;105409;1260;75390;-26
2024/02/09 09:25:54;;;;;;;3.20;2.10;;;;;;;3.87;70.59;97483.89;105173;1260;61857;-26
2024/02/09 09:28:22;;;;;;;3.60;2.00;;;;;;;4.31;68.38;97481.81;105206;1264;62909;-26
2024/02/09 09:30:50;;;;;;;3.20;2.30;;;;;;;4.25;67.98;97473.29;105360;1258;75799;-26
2024/02/09 09:33:18;;;;;;;3.40;2.10;;;;;;;4.16;67.87;97471.62;105409;1258;77254;-25
2024/02/09 09:35:46;;;;;;;3.20;2.30;;;;;;;4.11;68.31;97471.20;105466;1260;75548;-26
2024/02/09 09:38:19;;;;;;;2.80;2.20;;;;;;;3.86;68.73;97472.48;105530;1257;61988;-26
2024/02/09 09:40:48;;;;;;;1.90;1.70;;;;;;;3.48;69.92;97470.39;105292;1257;62324;-25
2024/02/09 09:43:17;;;;;;;2.40;1.50;;;;;;;3.18;70.93;97472.69;105304;1263;75736;-26
2024/02/09 09:45:56;;;;;;;2.60;1.70;;;;;;;3.30;71.29;97477.11;105558;1258;77120;-26
2024/02/09 09:48:26;;;;;;;3.30;2.00;;;;;;;3.60;70.42;97474.94;105259;1258;75390;-26
2024/02/09 09:50:55;;;;;;;3.10;1.90;;;;;;;3.50;70.32;97476.29;105504;1257;62882;-26
2024/02/09 09:53:27;;;;;;;3.10;2.00;;;;;;;3.40;70.37;97476.46;105313;1257;61180;-25
2024/02/09 09:55:58;;;;;;;5.00;2.60;;;;;;;3.16;71.42;97477.85;105282;1264;75833;-26
2024/02/09 09:58:27;;;;;;;4.50;2.40;;;;;;;2.82;72.94;97481.87;105264;1265;75369;-26
2024/02/09 10:00:55;;;;;;;1.50;1.30;;;;;;;2.85;72.76;97485.45;105581;1260;73423;-26
2024/02/09 10:03:24;;;;;;;2.40;1.70;;;;;;;2.73;73.07;97491.45;105223;1260;61136;-25
2024/02/09 10:05:52;;;;;;;3.90;1.90;;;;;;;3.10;73.00;97492.86;105506;1263;61940;-25
2024/02/09 10:08:21;;;;;;;2.10;1.70;;;;;;;3.63;71.73;97487.09;105461;1261;75747;-25
2024/02/09 10:10:50;;;;;;;1.90;1.20;;;;;;;3.70;70.44;97481.55;105255;1257;77175;-25
2024/02/09 10:13:22;;;;;;;1.00;0.70;;;;;;;3.67;70.21;97481.80;105243;1264;74533;-25
2024/02/09 10:15:54;;;;;;;1.20;1.10;;;;;;;3.46;70.58;97484.30;105271;1258;61144;-25
2024/02/09 10:18:22;;;;;;;2.20;1.20;;;;;;;3.17;71.39;97490.44;105703;1253;61760;-25
2024/02/09 10:20:52;;;;;;;1.30;1.00;;;;;;;2.94;72.58;97490.98;105651;1260;71731;-25
2024/02/09 10:23:20;;;;;;;1.80;1.30;;;;;;;3.32;71.82;97495.79;105647;1260;77648;-25
2024/02/09 10:25:48;;;;;;;2.60;1.40;;;;;;;3.44;71.29;97501.42;105594;1258;75474;-25
2024/02/09 10:28:23;;;;;;;2.50;2.00;;;;;;;3.31;71.36;97502.97;105534;1259;61160;-26
2024/02/09 10:30:52;;;;;;;3.80;2.30;;;;;;;3.12;72.02;97511.33;105685;1253;61823;-25
2024/02/09 10:33:20;;;;;;;1.90;1.30;;;;;;;3.10;72.24;97510.30;105649;1259;74816;-25
2024/02/09 10:35:48;;;;;;;1.50;0.70;;;;;;;2.92;72.41;97508.95;105462;1258;77093;-25
2024/02/09 10:38:16;;;;;;;1.80;1.40;;;;;;;3.07;73.16;97515.36;105623;1256;75336;-25
2024/02/09 10:40:45;;;;;;;2.80;2.00;;;;;;;3.79;71.39;97510.55;105501;1257;62866;-25
2024/02/09 10:43:13;;;;;;;4.50;2.20;;;;;;;4.03;69.66;97515.76;105341;1253;61155;-25
2024/02/09 10:45:41;;;;;;;4.30;2.70;;;;;;;3.89;69.44;97513.81;105562;1253;75695;-26
2024/02/09 10:48:10;;;;;;;2.00;1.70;;;;;;;3.65;70.20;97510.63;105612;1253;75703;-26
2024/02/09 10:50:39;;;;;;;3.50;1.90;;;;;;;3.43;70.86;97514.39;105616;1254;75143;-25
2024/02/09 10:53:12;;;;;;;2.80;1.70;;;;;;;3.49;70.66;97517.23;105671;1254;61981;-25
2024/02/09 10:55:41;;;;;;;1.30;1.00;;;;;;;3.32;71.56;97518.66;105628;1260;62634;-25
2024/02/09 10:58:11;;;;;;;4.50;2.20;;;;;;;3.99;70.35;97518.12;105521;1261;73823;-25
2024/02/09 11:00:39;;;;;;;4.60;2.70;;;;;;;4.39;68.78;97517.39;105654;1261;74480;-25
2024/02/09 11:03:07;;;;;;;5.80;3.20;;;;;;;4.37;68.38;97522.18;105394;1254;74112;-25
2024/02/09 11:05:38;;;;;;;7.40;3.30;;;;;;;4.09;68.89;97525.63;105627;1253;61869;-25
2024/02/09 11:08:06;;;;;;;3.40;2.00;;;;;;;3.92;69.59;97520.86;105526;1253;61061;-24
2024/02/09 11:10:34;;;;;;;3.60;2.20;;;;;;;3.66;70.04;97519.80;105684;1253;75706;-24
2024/02/09 11:13:03;;;;;;;3.00;1.90;;;;;;;3.59;70.22;97521.05;105698;1258;77503;-24
2024/02/09 11:15:32;;;;;;;3.00;2.10;;;;;;;3.42;70.70;97512.86;105656;1255;74619;-24
2024/02/09 11:18:00;;;;;;;4.70;2.30;;;;;;;3.87;70.72;97506.33;105670;1253;61098;-24
2024/02/09 11:20:32;;;;;;;2.60;1.30;;;;;;;4.44;68.71;97512.69;105684;1258;62801;-24
2024/02/09 11:23:01;;;;;;;2.90;1.80;;;;;;;4.56;68.21;97511.23;105660;1253;74768;-24
2024/02/09 11:25:31;;;;;;;3.70;2.10;;;;;;;4.39;67.96;97506.55;105626;1254;77117;-24
2024/02/09 11:28:05;;;;;;;2.10;1.40;;;;;;;4.14;68.60;97500.86;105553;1254;74417;-24
2024/02/09 11:30:33;;;;;;;2.30;1.70;;;;;;;3.78;69.36;97499.13;105277;1264;61264;-24
2024/02/09 11:33:01;;;;;;;2.40;1.50;;;;;;;3.52;70.04;97496.39;105399;1260;61177;-24
2024/02/09 11:35:29;;;;;;;1.00;0.90;;;;;;;3.20;71.26;97493.45;105435;1254;73161;-24
2024/02/09 11:37:58;;;;;;;2.10;1.30;;;;;;;3.50;71.31;97489.45;105714;1253;77174;-24
2024/02/09 11:40:26;;;;;;;1.80;1.50;;;;;;;4.00;69.67;97486.96;105687;1258;75395;-24
2024/02/09 11:42:54;;;;;;;4.90;3.20;;;;;;;4.13;69.03;97485.76;105592;1260;62847;-24
2024/02/09 11:45:22;;;;;;;3.50;1.90;;;;;;;3.84;69.44;97494.58;105615;1253;62833;-24
2024/02/09 11:47:50;;;;;;;1.90;1.10;;;;;;;3.51;70.70;97504.16;105619;1253;76589;-24
2024/02/09 11:50:20;;;;;;;3.20;2.00;;;;;;;3.17;71.89;97506.73;105704;1253;75519;-24
2024/02/09 11:52:49;;;;;;;2.50;1.80;;;;;;;3.04;72.74;97511.63;105404;1253;74397;-24
2024/02/09 11:55:39;;;;;;;5.00;2.20;;;;;;;3.14;71.85;97515.02;105558;1261;61266;-23
2024/02/09 11:58:08;;;;;;;3.20;1.80;;;;;;;3.29;72.35;97513.56;105666;1253;62144;-24
2024/02/09 12:00:38;;;;;;;2.70;1.80;;;;;;;3.84;70.58;97511.58;105579;1254;75589;-24
2024/02/09 12:03:06;;;;;;;3.00;1.70;;;;;;;3.95;69.95;97513.48;105605;1254;76912;-25
2024/02/09 12:05:36;;;;;;;3.20;2.10;;;;;;;3.83;70.04;97511.16;105572;1254;75360;-25
2024/02/09 12:08:05;;;;;;;3.10;1.50;;;;;;;3.64;70.42;97507.98;105301;1256;61112;-25
2024/02/09 12:10:36;;;;;;;2.10;1.20;;;;;;;3.36;71.39;97507.20;105698;1253;61141;-25
2024/02/09 12:13:05;;;;;;;2.70;2.00;;;;;;;3.00;72.46;97505.25;105571;1253;76500;-25
2024/02/09 12:15:34;;;;;;;1.80;1.40;;;;;;;2.76;73.36;97502.55;105669;1253;76286;-25
2024/02/09 12:18:02;;;;;;;1.10;1.00;;;;;;;3.09;73.72;97499.09;105723;1256;75428;-25
2024/02/09 12:20:32;;;;;;;6.20;2.70;;;;;;;3.48;72.19;97506.48;105676;1253;62880;-25
2024/02/09 12:23:04;;;;;;;3.90;2.00;;;;;;;3.53;71.83;97504.67;105674;1254;62725;-25
2024/02/09 12:25:36;;;;;;;5.40;2.50;;;;;;;3.39;72.12;97506.13;105692;1258;76597;-25
2024/02/09 12:28:04;;;;;;;3.90;2.50;;;;;;;3.12;72.95;97506.80;105529;1255;77140;-25
2024/02/09 12:30:32;;;;;;;2.30;1.90;;;;;;;2.54;75.04;97512.73;105423;1260;75157;-25
2024/02/09 12:33:00;;;;;;;3.00;2.00;;;;;;;2.96;74.81;97519.45;105287;1253;62663;-25
2024/02/09 12:35:28;;;;;;;1.90;1.50;;;;;;;3.70;72.10;97528.59;105626;1255;61052;-25
2024/02/09 12:37:57;;;;;;;3.90;2.00;;;;;;;3.83;70.38;97520.91;105632;1258;76600;-25
2024/02/09 12:40:25;;;;;;;4.00;2.50;;;;;;;3.63;70.64;97522.14;105680;1253;76135;-25
2024/02/09 12:42:53;;;;;;;2.70;1.60;;;;;;;3.52;71.07;97518.33;105728;1254;75539;-25
2024/02/09 12:45:31;;;;;;;2.30;1.50;;;;;;;3.30;71.61;97517.40;105673;1253;61549;-25
2024/02/09 12:47:59;;;;;;;2.00;1.50;;;;;;;3.03;72.22;97524.59;105689;1253;61753;-25
2024/02/09 12:50:28;;;;;;;2.50;1.50;;;;;;;2.87;73.38;97528.16;105608;1259;76618;-25
2024/02/09 12:52:57;;;;;;;3.90;2.80;;;;;;;3.46;72.11;97529.77;105673;1253;77152;-24
2024/02/09 12:55:25;;;;;;;2.60;1.30;;;;;;;3.72;71.01;97528.30;105577;1253;72796;-24
2024/02/09 12:57:55;;;;;;;4.00;2.50;;;;;;;3.48;71.18;97526.66;105672;1258;61270;-25
2024/02/09 13:00:23;;;;;;;2.10;1.60;;;;;;;3.24;71.94;97534.17;105609;1253;61702;-25
2024/02/09 13:02:53;;;;;;;2.60;1.60;;;;;;;3.09;72.52;97536.98;105621;1258;76363;-25
2024/02/09 13:05:21;;;;;;;4.80;3.30;;;;;;;2.90;73.02;97537.71;105566;1260;76194;-25
2024/02/09 13:07:50;;;;;;;2.10;1.50;;;;;;;2.63;74.28;97532.14;105625;1254;75451;-26
2024/02/09 13:10:18;;;;;;;4.70;1.60;;;;;;;3.13;73.55;97535.98;105631;1253;61148;-26
2024/02/09 13:12:46;;;;;;;5.50;3.70;;;;;;;3.46;72.20;97533.70;105658;1258;62783;-26
2024/02/09 13:15:15;;;;;;;3.70;2.20;;;;;;;3.50;72.08;97537.02;105662;1253;75448;-25
2024/02/09 13:17:43;;;;;;;3.20;2.30;;;;;;;3.33;72.44;97535.56;105581;1258;77154;-25
2024/02/09 13:20:11;;;;;;;3.40;2.40;;;;;;;3.10;73.06;97534.31;105496;1254;75383;-25
2024/02/09 13:22:39;;;;;;;3.70;2.50;;;;;;;2.98;73.21;97530.42;105568;1253;61105;-25
2024/02/09 13:25:13;;;;;;;4.40;2.00;;;;;;;2.89;73.90;97530.79;105580;1255;62858;-26
2024/02/09 13:27:45;;;;;;;3.50;2.60;;;;;;;3.59;72.63;97530.14;105489;1253;76551;-26
2024/02/09 13:30:19;;;;;;;4.30;2.70;;;;;;;3.91;70.46;97522.38;105244;1254;77111;-25
2024/02/09 13:32:47;;;;;;;3.30;2.90;;;;;;;3.80;70.45;97521.67;105431;1258;75484;-25
2024/02/09 13:35:18;;;;;;;4.60;3.00;;;;;;;3.61;70.72;97527.96;105616;1256;61113;-25
2024/02/09 13:37:48;;;;;;;3.40;2.50;;;;;;;3.33;71.60;97529.19;105671;1258;61415;-25
2024/02/09 13:40:18;;;;;;;2.80;2.30;;;;;;;3.07;72.45;97528.54;105668;1254;75599;-25
2024/02/09 13:42:47;;;;;;;4.90;3.50;;;;;;;2.81;73.45;97521.03;105667;1258;77110;-26
2024/02/09 13:45:17;;;;;;;3.40;2.60;;;;;;;2.99;73.75;97515.91;105453;1256;75413;-26
2024/02/09 13:47:45;;;;;;;4.90;3.30;;;;;;;3.44;72.11;97516.54;105781;1257;61695;-26
2024/02/09 13:50:15;;;;;;;5.60;4.10;;;;;;;3.55;71.59;97516.23;105571;1257;62818;-26
2024/02/09 13:52:45;;;;;;;6.90;4.00;;;;;;;3.39;71.71;97517.77;105556;1260;74023;-26
2024/02/09 13:55:14;;;;;;;4.90;3.70;;;;;;;3.18;72.39;97520.23;105599;1259;76576;-26
2024/02/09 13:57:43;;;;;;;7.50;4.00;;;;;;;2.86;73.35;97513.80;105636;1260;74449;-26
2024/02/09 14:02:09;;;;;;;4.50;2.60;;;;;;;2.55;75.22;97505.50;103097;1287;600214;-26
2024/02/09 14:04:37;;;;;;;6.20;4.60;;;;;;;3.16;73.74;97507.99;104882;1266;61912;-28
2024/02/09 14:07:08;;;;;;;4.80;3.30;;;;;;;3.20;73.17;97511.52;105691;1261;62791;-27
2024/02/09 14:09:38;;;;;;;7.80;4.40;;;;;;;3.04;73.19;97507.50;105690;1254;74612;-27
2024/02/09 14:12:07;;;;;;;3.60;2.90;;;;;;;2.83;73.75;97506.16;105651;1254;77206;-27
2024/02/09 14:14:35;;;;;;;4.30;3.20;;;;;;;2.51;74.70;97503.89;105677;1257;73728;-27
2024/02/09 14:17:05;;;;;;;5.40;3.20;;;;;;;2.59;75.45;97502.30;105535;1259;61167;-27
2024/02/09 14:19:33;;;;;;;3.10;2.60;;;;;;;3.18;73.84;97505.65;105814;1256;62820;-27
2024/02/09 14:22:03;;;;;;;4.70;3.60;;;;;;;3.24;73.05;97508.96;105560;1256;73698;-27
2024/02/09 14:24:31;;;;;;;3.90;3.10;;;;;;;3.05;73.09;97511.39;105639;1254;76276;-27
2024/02/09 14:27:01;;;;;;;8.00;5.50;;;;;;;2.81;73.79;97508.73;105710;1260;74253;-27
2024/02/09 14:29:30;;;;;;;9.00;5.50;;;;;;;2.61;74.31;97506.52;105634;1254;61153;-27
2024/02/09 14:31:58;;;;;;;5.40;3.90;;;;;;;2.41;75.53;97503.23;105830;1257;61546;-27
2024/02/09 14:34:27;;;;;;;5.20;3.40;;;;;;;2.91;74.16;97502.64;105638;1258;73848;-27
2024/02/09 14:36:56;;;;;;;5.50;4.20;;;;;;;3.09;73.28;97503.72;105692;1260;76683;-27
2024/02/09 14:39:24;;;;;;;7.00;3.60;;;;;;;2.98;73.43;97503.54;105687;1259;73313;-27
2024/02/09 14:41:52;;;;;;;6.00;4.20;;;;;;;2.79;73.77;97500.09;105803;1255;61240;-26
2024/02/09 14:44:20;;;;;;;6.00;4.00;;;;;;;2.65;74.38;97506.81;105578;1259;62801;-27
2024/02/09 14:46:49;;;;;;;4.90;3.00;;;;;;;2.38;75.21;97510.64;105660;1252;73624;-26
2024/02/09 14:49:17;;;;;;;5.60;3.50;;;;;;;2.57;75.22;97513.05;105962;1254;76194;-26
2024/02/09 14:51:46;;;;;;;3.00;2.00;;;;;;;3.24;73.72;97523.52;105870;1254;74515;-26
2024/02/09 14:54:14;;;;;;;4.20;3.10;;;;;;;3.34;72.76;97527.26;105714;1259;61170;-26
2024/02/09 14:56:42;;;;;;;12.20;6.50;;;;;;;3.19;72.84;97525.47;105680;1259;61167;-26
2024/02/09 14:59:25;;;;;;;5.80;4.20;;;;;;;2.96;73.40;97515.84;105640;1254;73997;-26
2024/02/09 15:01:55;;;;;;;8.40;4.70;;;;;;;2.53;74.86;97513.13;105813;1254;77118;-26
2024/02/09 15:04:23;;;;;;;5.40;3.60;;;;;;;2.64;75.46;97508.38;105805;1257;73841;-26
2024/02/09 15:06:51;;;;;;;9.60;4.80;;;;;;;3.24;73.73;97510.81;105855;1254;62903;-26
2024/02/09 15:09:22;;;;;;;7.60;4.60;;;;;;;3.37;72.84;97513.42;105673;1260;61867;-26
2024/02/09 15:11:51;;;;;;;6.50;4.20;;;;;;;3.23;72.83;97512.95;105864;1256;73800;-26
2024/02/09 15:14:19;;;;;;;8.90;6.10;;;;;;;2.95;73.44;97510.06;105861;1253;76170;-26
2024/02/09 15:16:47;;;;;;;8.30;4.80;;;;;;;2.54;74.62;97503.98;105819;1257;74551;-25
2024/02/09 15:19:15;;;;;;;4.50;3.00;;;;;;;2.32;75.90;97509.52;105848;1257;61744;-26
2024/02/09 15:21:48;;;;;;;8.40;5.80;;;;;;;2.72;75.26;97511.45;105664;1259;62675;-26
2024/02/09 15:24:25;;;;;;;6.00;4.50;;;;;;;2.90;74.57;97516.83;105870;1257;75786;-26
2024/02/09 15:26:54;;;;;;;5.30;3.30;;;;;;;2.84;74.41;97515.04;105650;1259;76904;-26
2024/02/09 15:29:24;;;;;;;7.30;5.70;;;;;;;2.49;75.29;97513.09;105761;1257;73995;-26
2024/02/09 15:31:54;;;;;;;6.80;5.00;;;;;;;2.30;76.02;97508.30;105895;1259;61148;-25
2024/02/09 15:34:22;;;;;;;4.60;3.10;;;;;;;1.96;77.29;97508.80;105905;1254;61791;-26
2024/02/09 15:36:50;;;;;;;4.00;2.00;;;;;;;2.58;75.91;97505.73;105915;1256;74687;-26
2024/02/09 15:39:18;;;;;;;5.20;3.70;;;;;;;2.70;75.16;97504.05;105857;1254;75277;-26
2024/02/09 15:41:46;;;;;;;5.20;4.70;;;;;;;2.62;75.31;97507.41;105802;1254;75459;-26
2024/02/09 15:44:14;;;;;;;8.10;4.40;;;;;;;2.53;75.05;97509.90;105825;1254;61901;-26
2024/02/09 15:46:42;;;;;;;9.60;5.50;;;;;;;2.15;76.37;97512.63;105804;1254;61824;-27
2024/02/09 15:49:14;;;;;;;6.40;4.10;;;;;;;1.95;77.46;97515.70;105925;1256;74145;-26
2024/02/09 15:51:43;;;;;;;6.80;3.20;;;;;;;2.42;76.51;97517.22;105833;1255;77118;-26